Time;durP1;ratioP1;P1;durP2;ratioP2;P2;SDS_P1;SDS_P2;PMS_P1;PMS_P2;Temp;Humidity;BMP_temperature;BMP_pressure;BME280_temperature;BME280_humidity;BME280_pressure;Samples;Min_cycle;Max_cycle;Signal;HPM_P1;HPM_P2
2023/06/27 00:01:45;;;;;;;8.1;6.2;;;;;;;21.08;76.21094;940.425;;;;
2023/06/27 00:04:13;;;;;;;7.9;5.8;;;;;;;20.99;73.97363;940.384;;;;
2023/06/27 00:06:40;;;;;;;8.4;5.7;;;;;;;20.96;72.90527;940.4303;;;;
2023/06/27 00:09:05;;;;;;;7.9;6.3;;;;;;;21.06;74.2666;940.4303;;;;
2023/06/27 00:11:27;;;;;;;8.8;5.4;;;;;;;21.14;73.08691;940.5204;;;;
2023/06/27 00:13:52;;;;;;;7.4;5.3;;;;;;;21.09;73.79199;940.5438;;;;
2023/06/27 00:16:17;;;;;;;8.4;5.4;;;;;;;21.08;72.93652;940.5083;;;;
2023/06/27 00:18:47;;;;;;;8.4;5.3;;;;;;;21.13;71.25977;940.5313;;;;
2023/06/27 00:21:09;;;;;;;8.1;5.2;;;;;;;21.13;69.43457;940.5483;;;;
2023/06/27 00:23:36;;;;;;;8.4;5.7;;;;;;;21.12;69.99512;940.538;;;;
2023/06/27 00:26:01;;;;;;;8.9;5.5;;;;;;;20.97;70.15918;940.5385;;;;
2023/06/27 00:28:27;;;;;;;7;5.2;;;;;;;20.98;69.65723;940.5772;;;;
2023/06/27 00:30:52;;;;;;;6.6;5.2;;;;;;;21.02;68.72754;940.59;;;;
2023/06/27 00:33:18;;;;;;;8.4;4.9;;;;;;;21.12;68.52051;940.5008;;;;
2023/06/27 00:35:44;;;;;;;7.2;5.4;;;;;;;21.07;68.73633;940.5087;;;;
2023/06/27 00:38:09;;;;;;;7.3;5;;;;;;;20.99;67.54102;940.4936;;;;
2023/06/27 00:40:34;;;;;;;7.1;5;;;;;;;21.01;67.24121;940.5003;;;;
2023/06/27 00:43:01;;;;;;;9.1;4.8;;;;;;;21.06;66.39551;940.4991;;;;
2023/06/27 00:45:26;;;;;;;8.7;4.6;;;;;;;21.08;65.55664;940.5447;;;;
2023/06/27 00:47:53;;;;;;;6.6;4.6;;;;;;;21.11;63.53613;940.5221;;;;
2023/06/27 00:50:18;;;;;;;6.2;4;;;;;;;21.07;62.09277;940.4973;;;;
2023/06/27 00:52:45;;;;;;;6.7;4.1;;;;;;;21.07;62.4082;940.5142;;;;
2023/06/27 00:55:09;;;;;;;8.5;4.4;;;;;;;20.87;60.61523;940.5073;;;;
2023/06/27 00:57:35;;;;;;;5.8;3.6;;;;;;;21.01;60.58691;940.5197;;;;
2023/06/27 01:00:05;;;;;;;6.4;4;;;;;;;20.98;60.2793;940.5255;;;;
2023/06/27 01:02:32;;;;;;;6.2;3.7;;;;;;;20.97;58.76953;940.4674;;;;
2023/06/27 01:04:57;;;;;;;5.2;3.4;;;;;;;20.86;58.56738;940.5109;;;;
2023/06/27 01:07:24;;;;;;;5.4;3.4;;;;;;;20.88;58.79297;940.5329;;;;
2023/06/27 01:09:49;;;;;;;7;3.4;;;;;;;20.92;58.19043;940.4694;;;;
2023/06/27 01:12:14;;;;;;;5.3;3;;;;;;;20.99;57.68359;940.4078;;;;
2023/06/27 01:14:39;;;;;;;5.5;3.1;;;;;;;21.07;56.70117;940.3814;;;;
2023/06/27 01:17:06;;;;;;;4.5;3.3;;;;;;;20.97;56.79395;940.4171;;;;
2023/06/27 01:19:31;;;;;;;5.9;3.4;;;;;;;20.99;56.39844;940.5219;;;;
2023/06/27 01:21:57;;;;;;;5.7;3.3;;;;;;;20.88;55.40234;940.4623;;;;
2023/06/27 01:24:25;;;;;;;5.4;2.9;;;;;;;20.77;56.9668;940.4537;;;;
2023/06/27 01:26:47;;;;;;;5.4;2.3;;;;;;;20.76;56.24023;940.463;;;;
2023/06/27 01:29:15;;;;;;;5.1;3.3;;;;;;;20.68;56.44141;940.5128;;;;
2023/06/27 01:31:40;;;;;;;5.3;3.1;;;;;;;20.56;56.40137;940.4736;;;;
2023/06/27 01:34:05;;;;;;;4.4;2.8;;;;;;;20.65;56.45996;940.4659;;;;
2023/06/27 01:36:30;;;;;;;4.3;2.7;;;;;;;20.57;57.24512;940.3954;;;;
2023/06/27 01:38:55;;;;;;;4;2.7;;;;;;;20.61;56.10352;940.3711;;;;
2023/06/27 01:41:20;;;;;;;7.9;3.4;;;;;;;20.68;55.89063;940.4109;;;;
2023/06/27 01:43:45;;;;;;;4.7;3;;;;;;;20.59;56.70996;940.4427;;;;
2023/06/27 01:46:12;;;;;;;4.6;2.9;;;;;;;20.58;56.11133;940.4706;;;;
2023/06/27 01:49:01;;;;;;;6.2;2.5;;;;;;;20.63;56.29395;940.4122;;;;
2023/06/27 01:51:27;;;;;;;4.6;2.4;;;;;;;20.74;55.70117;940.4116;;;;
2023/06/27 01:53:52;;;;;;;4.8;2.7;;;;;;;20.6;55.68262;940.3817;;;;
2023/06/27 01:56:18;;;;;;;5.1;2.9;;;;;;;20.56;55.56152;940.4006;;;;
2023/06/27 01:58:43;;;;;;;4;2.7;;;;;;;20.49;55.62207;940.4397;;;;
2023/06/27 02:01:10;;;;;;;4.3;2.7;;;;;;;20.5;55.19043;940.4579;;;;
2023/06/27 02:03:34;;;;;;;5.7;2.8;;;;;;;20.49;54.26758;940.3943;;;;
2023/06/27 02:05:59;;;;;;;5.4;2.4;;;;;;;20.47;54.89453;940.4144;;;;
2023/06/27 02:08:24;;;;;;;3.9;2.4;;;;;;;20.5;55.10938;940.3811;;;;
2023/06/27 02:10:50;;;;;;;4.7;2.6;;;;;;;20.46;54.56836;940.3845;;;;
2023/06/27 02:13:15;;;;;;;2.8;2.2;;;;;;;20.45;55.00977;940.4221;;;;
2023/06/27 02:15:40;;;;;;;4.2;2.6;;;;;;;20.29;55.26953;940.4012;;;;
2023/06/27 02:18:05;;;;;;;5.6;2.3;;;;;;;20.17;55.12793;940.3035;;;;
2023/06/27 02:20:33;;;;;;;5.8;2.6;;;;;;;20.05;55.22852;940.3461;;;;
2023/06/27 02:22:58;;;;;;;5.7;2.8;;;;;;;20.04;55.90332;940.4126;;;;
2023/06/27 02:25:23;;;;;;;4.3;2.4;;;;;;;20.11;55.74902;940.4337;;;;
2023/06/27 02:27:49;;;;;;;4.4;2.4;;;;;;;19.93;55.26074;940.4973;;;;
2023/06/27 02:30:14;;;;;;;3.9;2.2;;;;;;;19.93;54.88672;940.4972;;;;
2023/06/27 02:32:39;;;;;;;4;2.1;;;;;;;19.87;53.61914;940.4316;;;;
2023/06/27 02:35:04;;;;;;;3.6;2.2;;;;;;;19.83;53.79004;940.4462;;;;
2023/06/27 02:37:31;;;;;;;4.5;2.2;;;;;;;19.94;55.07422;940.4721;;;;
2023/06/27 02:40:54;;;;;;;5.8;2.1;;;;;;;19.97;54.55371;940.4373;;;;
2023/06/27 02:43:22;;;;;;;5;2.4;;;;;;;19.81;54.60352;940.4182;;;;
2023/06/27 02:45:47;;;;;;;5.7;2.6;;;;;;;19.72;55.49121;940.4508;;;;
2023/06/27 02:48:12;;;;;;;3.8;2.1;;;;;;;19.79;54.51953;940.4549;;;;
2023/06/27 02:50:37;;;;;;;3.8;1.9;;;;;;;19.84;53.95313;940.4242;;;;
2023/06/27 02:53:04;;;;;;;5.5;2.5;;;;;;;19.75;54.31641;940.4461;;;;
2023/06/27 02:55:29;;;;;;;3.2;2.1;;;;;;;19.8;54.05469;940.3431;;;;
2023/06/27 02:57:56;;;;;;;3.1;2;;;;;;;19.67;53.81836;940.3881;;;;
2023/06/27 03:00:21;;;;;;;3.6;2;;;;;;;19.64;54.08105;940.3638;;;;
2023/06/27 03:02:52;;;;;;;2.6;1.9;;;;;;;19.71;53.97266;940.313;;;;
2023/06/27 03:05:20;;;;;;;6.6;2.3;;;;;;;19.79;53.27051;940.3467;;;;
2023/06/27 03:07:44;;;;;;;4.5;1.9;;;;;;;19.81;52.70215;940.4164;;;;
2023/06/27 03:10:12;;;;;;;3.1;2;;;;;;;19.74;52.82324;940.3703;;;;
2023/06/27 03:12:37;;;;;;;3.7;2.2;;;;;;;19.76;53.67676;940.4305;;;;
2023/06/27 03:15:04;;;;;;;3.8;2.1;;;;;;;19.53;54.40527;940.5239;;;;
2023/06/27 03:17:28;;;;;;;3.7;2.3;;;;;;;19.42;55.12598;940.5302;;;;
2023/06/27 03:19:54;;;;;;;3.9;1.9;;;;;;;19.43;55.19824;940.488;;;;
2023/06/27 03:22:19;;;;;;;4.7;2.1;;;;;;;19.47;55.16797;940.4783;;;;
2023/06/27 03:24:45;;;;;;;6.8;2.1;;;;;;;19.49;55.36816;940.5199;;;;
2023/06/27 03:27:10;;;;;;;4.5;2.2;;;;;;;19.47;55.43555;940.5267;;;;
2023/06/27 03:29:39;;;;;;;3.7;2.2;;;;;;;19.43;55.24512;940.5494;;;;
2023/06/27 03:32:04;;;;;;;4.5;2;;;;;;;19.46;55.27051;940.5658;;;;
2023/06/27 03:34:38;;;;;;;3.3;1.8;;;;;;;19.47;55.21484;940.4994;;;;
2023/06/27 03:37:03;;;;;;;6.1;2.2;;;;;;;19.31;55.71875;940.6331;;;;
2023/06/27 03:39:28;;;;;;;3.9;1.9;;;;;;;19.32;55.68457;940.6113;;;;
2023/06/27 03:41:57;;;;;;;4.8;1.9;;;;;;;19.42;55.04492;940.6578;;;;
2023/06/27 03:44:22;;;;;;;5.6;2.1;;;;;;;19.38;55.14355;940.6156;;;;
2023/06/27 03:46:50;;;;;;;3.6;1.8;;;;;;;19.43;54.75488;940.6964;;;;
2023/06/27 03:49:14;;;;;;;4.4;2.1;;;;;;;19.48;55.63477;940.7139;;;;
2023/06/27 03:51:41;;;;;;;4.9;2.2;;;;;;;19.36;55.63184;940.6506;;;;
2023/06/27 03:54:06;;;;;;;2.7;2;;;;;;;19.42;54.92773;940.661;;;;
2023/06/27 03:56:33;;;;;;;3.1;1.8;;;;;;;19.45;54.66309;940.7372;;;;
2023/06/27 03:58:58;;;;;;;3.3;1.9;;;;;;;19.47;54.42188;940.7481;;;;
2023/06/27 04:02:43;;;;;;;5.8;2.1;;;;;;;19.47;55.15625;940.6462;;;;
2023/06/27 04:05:08;;;;;;;4.7;2.1;;;;;;;19.38;55.21484;940.6964;;;;
2023/06/27 04:07:40;;;;;;;2.3;1.8;;;;;;;19.42;55.08008;940.7272;;;;
2023/06/27 04:10:04;;;;;;;5.9;1.9;;;;;;;19.34;55.30273;940.7191;;;;
2023/06/27 04:12:30;;;;;;;4.1;2.3;;;;;;;19.28;55.73828;940.7395;;;;
2023/06/27 04:14:55;;;;;;;3.5;1.9;;;;;;;19.2;56.37891;940.72;;;;
2023/06/27 04:17:21;;;;;;;6.3;2.3;;;;;;;19.23;56.43164;940.8301;;;;
2023/06/27 04:19:46;;;;;;;5.7;1.8;;;;;;;19.19;55.82031;940.9081;;;;
2023/06/27 04:22:38;;;;;;;3.5;2.1;;;;;;;19.13;56.58203;940.9004;;;;
2023/06/27 04:25:11;;;;;;;5.1;2.4;;;;;;;18.99;58.21484;940.9561;;;;
2023/06/27 04:31:06;;;;;;;4.2;1.8;;;;;;;18.54;61.76172;941.0962;;;;
2023/06/27 04:33:31;;;;;;;4.4;2;;;;;;;18.37;62.78516;941.21;;;;
2023/06/27 04:36:01;;;;;;;4.7;2.1;;;;;;;18.27;63.51172;941.1722;;;;
2023/06/27 04:40:46;;;;;;;4.9;2.1;;;;;;;18.27;65.62891;941.1253;;;;
2023/06/27 04:43:14;;;;;;;3.9;2.2;;;;;;;18.09;67.28809;941.1785;;;;
2023/06/27 04:45:37;;;;;;;6.2;2.3;;;;;;;18.12;67.8252;941.1653;;;;
2023/06/27 04:48:03;;;;;;;3.7;2.3;;;;;;;18.09;67.30957;941.1149;;;;
2023/06/27 04:50:29;;;;;;;5.8;2.4;;;;;;;18.02;67.9834;941.0925;;;;
2023/06/27 04:52:54;;;;;;;4.2;2.1;;;;;;;18.02;68.16992;941.1506;;;;
2023/06/27 04:55:19;;;;;;;4.1;2.4;;;;;;;18.11;67.54492;941.175;;;;
2023/06/27 04:57:44;;;;;;;3.9;2;;;;;;;18.05;68.45215;941.2219;;;;
2023/06/27 05:00:13;;;;;;;4.7;2.1;;;;;;;17.86;68.96973;941.325;;;;
2023/06/27 05:05:38;;;;;;;4.9;2.1;;;;;;;17.46;71.71387;941.5008;;;;
2023/06/27 05:08:03;;;;;;;4.6;2.4;;;;;;;17.53;71.06445;941.5707;;;;
2023/06/27 05:10:30;;;;;;;4.2;2.3;;;;;;;17.57;71.31543;941.5798;;;;
2023/06/27 05:12:55;;;;;;;7.1;2.6;;;;;;;17.56;71.24219;941.5447;;;;
2023/06/27 05:15:21;;;;;;;4.4;2.7;;;;;;;17.49;73.69238;941.6863;;;;
2023/06/27 05:17:46;;;;;;;3.5;2.1;;;;;;;17.42;74.2832;941.6542;;;;
2023/06/27 05:20:13;;;;;;;7.1;2.9;;;;;;;17.38;74.99414;941.6624;;;;
2023/06/27 05:22:39;;;;;;;7.6;2.9;;;;;;;17.38;76.20215;941.693;;;;
2023/06/27 05:25:04;;;;;;;3.7;2.4;;;;;;;17.35;75.58105;941.7045;;;;
2023/06/27 05:27:29;;;;;;;6.3;2.8;;;;;;;17.33;75.72852;941.6566;;;;
2023/06/27 05:29:54;;;;;;;5.6;3;;;;;;;17.3;75.95508;941.6955;;;;
2023/06/27 05:32:19;;;;;;;5;3;;;;;;;17.28;77.70215;941.7278;;;;
2023/06/27 05:34:46;;;;;;;4.9;2.6;;;;;;;17.31;79.23828;941.742;;;;
2023/06/27 05:37:11;;;;;;;5.1;3.1;;;;;;;17.25;81.29199;941.8055;;;;
2023/06/27 05:39:36;;;;;;;5.6;2.8;;;;;;;17.25;81.46582;941.7589;;;;
2023/06/27 05:42:01;;;;;;;4.6;2.6;;;;;;;17.18;81.49902;941.7617;;;;
2023/06/27 05:44:28;;;;;;;4.5;2.6;;;;;;;17.24;81.39355;941.742;;;;
2023/06/27 05:46:53;;;;;;;4.6;2.9;;;;;;;17.32;81.65332;941.7322;;;;
2023/06/27 05:49:20;;;;;;;6;2.8;;;;;;;17.39;82.2334;941.7645;;;;
2023/06/27 05:51:45;;;;;;;5.1;2.8;;;;;;;17.37;79.8291;941.805;;;;
2023/06/27 05:54:10;;;;;;;6.5;2.5;;;;;;;17.22;79.53613;941.7857;;;;
2023/06/27 05:56:36;;;;;;;5.3;2.6;;;;;;;16.99;81.89453;941.6981;;;;
2023/06/27 05:59:02;;;;;;;6.6;2.9;;;;;;;17.13;82.23047;941.6085;;;;
2023/06/27 06:01:27;;;;;;;3.8;2.9;;;;;;;17.3;84.17676;941.5659;;;;
2023/06/27 06:03:53;;;;;;;4.6;2.4;;;;;;;17.48;80.83691;941.5577;;;;
2023/06/27 06:06:18;;;;;;;3.8;2.5;;;;;;;17.67;82.37891;941.5653;;;;
2023/06/27 06:08:43;;;;;;;5.1;2.8;;;;;;;17.7;79.19336;941.6256;;;;
2023/06/27 06:11:09;;;;;;;3.9;2.5;;;;;;;17.7;79.50684;941.595;;;;
2023/06/27 06:13:34;;;;;;;5.5;2.8;;;;;;;17.77;79.125;941.64;;;;
2023/06/27 06:16:01;;;;;;;6.3;3;;;;;;;17.9;78.56738;941.6733;;;;
2023/06/27 06:18:26;;;;;;;4.3;2.5;;;;;;;17.85;77.90723;941.6224;;;;
2023/06/27 06:20:53;;;;;;;4.5;2.7;;;;;;;17.87;77.70215;941.6085;;;;
2023/06/27 06:23:18;;;;;;;4.9;2.8;;;;;;;17.87;78.25879;941.5666;;;;
2023/06/27 06:25:43;;;;;;;5.7;3;;;;;;;17.9;78.54395;941.5572;;;;
2023/06/27 06:28:08;;;;;;;6.2;3.1;;;;;;;18.02;77.93848;941.5854;;;;
2023/06/27 06:30:36;;;;;;;5.4;2.8;;;;;;;18;77.01758;941.5825;;;;
2023/06/27 06:33:02;;;;;;;5.1;2.8;;;;;;;18.04;76.65234;941.5114;;;;
2023/06/27 06:35:28;;;;;;;6.6;2.8;;;;;;;18.06;77.08594;941.4554;;;;
2023/06/27 06:37:53;;;;;;;3.9;3;;;;;;;18.2;76.50586;941.5259;;;;
2023/06/27 06:40:19;;;;;;;5.4;2.7;;;;;;;18.35;75.90527;941.4853;;;;
2023/06/27 06:45:10;;;;;;;4.1;3.1;;;;;;;18.44;75.53711;941.5156;;;;
2023/06/27 06:47:34;;;;;;;6.4;2.9;;;;;;;18.31;76.00195;941.519;;;;
2023/06/27 06:50:00;;;;;;;5.7;2.8;;;;;;;18.34;76.05273;941.5427;;;;
2023/06/27 06:52:25;;;;;;;7.1;3.1;;;;;;;18.33;76.83203;941.5556;;;;
2023/06/27 06:54:50;;;;;;;8.2;3;;;;;;;18.33;76.07617;941.5412;;;;
2023/06/27 06:57:15;;;;;;;5.3;3;;;;;;;18.43;76.71973;941.541;;;;
2023/06/27 06:59:44;;;;;;;4.1;2.6;;;;;;;18.55;74.38086;941.5043;;;;
2023/06/27 07:02:08;;;;;;;5.9;2.7;;;;;;;18.57;74.55859;941.5781;;;;
2023/06/27 07:04:34;;;;;;;6.2;2.6;;;;;;;18.69;74.21875;941.4783;;;;
2023/06/27 07:06:59;;;;;;;5.1;2.8;;;;;;;18.78;72.92969;941.4647;;;;
2023/06/27 07:09:28;;;;;;;8.3;3.2;;;;;;;18.85;72.03418;941.4841;;;;
2023/06/27 07:11:53;;;;;;;4.8;2.4;;;;;;;18.8;73.2002;941.4911;;;;
2023/06/27 07:14:17;;;;;;;5.2;3;;;;;;;18.9;73.05566;941.4645;;;;
2023/06/27 07:16:43;;;;;;;4.4;2.5;;;;;;;19.04;73.8457;941.3703;;;;
2023/06/27 07:19:08;;;;;;;5.6;2.6;;;;;;;19.18;71.36621;941.3193;;;;
2023/06/27 07:21:34;;;;;;;5.3;2.5;;;;;;;19.28;69.19238;941.2346;;;;
2023/06/27 07:23:58;;;;;;;3.9;2.6;;;;;;;19.39;69.47754;941.2679;;;;
2023/06/27 07:26:26;;;;;;;7.2;2.9;;;;;;;19.22;69.43848;941.2074;;;;
2023/06/27 07:28:51;;;;;;;3.5;2.7;;;;;;;19.3;70.84961;941.1291;;;;
2023/06/27 07:31:16;;;;;;;4.5;2.7;;;;;;;19.4;71.6582;941.1046;;;;
2023/06/27 07:33:41;;;;;;;4.8;2.6;;;;;;;19.41;70.77344;941.0955;;;;
2023/06/27 07:36:07;;;;;;;4.2;2.2;;;;;;;19.46;70.10547;941.0229;;;;
2023/06/27 07:38:33;;;;;;;8.8;3.2;;;;;;;19.43;70.52051;941.0211;;;;
2023/06/27 07:40:58;;;;;;;4.1;2.2;;;;;;;19.44;69.58984;941.0799;;;;
2023/06/27 07:43:23;;;;;;;4.5;2.5;;;;;;;19.4;69.31543;941.0441;;;;
2023/06/27 07:45:50;;;;;;;5.9;2.7;;;;;;;19.37;70.10254;941.0908;;;;
2023/06/27 07:48:16;;;;;;;6.7;2.5;;;;;;;19.49;69.73828;941.04;;;;
2023/06/27 07:53:05;;;;;;;4.7;2.4;;;;;;;19.54;69.43066;941.0725;;;;
2023/06/27 07:55:31;;;;;;;5.9;2.8;;;;;;;19.46;70.46777;941.0745;;;;
2023/06/27 07:57:56;;;;;;;5.4;2.6;;;;;;;19.25;71.9707;941.0002;;;;
2023/06/27 08:00:22;;;;;;;4.7;2.8;;;;;;;19.31;70.03516;941.0837;;;;
2023/06/27 08:02:50;;;;;;;7.5;2.7;;;;;;;19.58;69.74023;941.0627;;;;
2023/06/27 08:05:15;;;;;;;5.7;2.6;;;;;;;19.77;68.45313;941.0574;;;;
2023/06/27 08:07:41;;;;;;;5.2;2.6;;;;;;;19.95;69.0752;941.0262;;;;
2023/06/27 08:10:07;;;;;;;5.5;2.6;;;;;;;20.05;68.25098;941.0261;;;;
2023/06/27 08:12:35;;;;;;;5.5;2.4;;;;;;;20.17;67.86035;941.0078;;;;
2023/06/27 08:15:00;;;;;;;3.6;2.5;;;;;;;20.33;67.62891;941.0044;;;;
2023/06/27 08:17:27;;;;;;;6.8;3;;;;;;;20.39;66.58691;940.9835;;;;
2023/06/27 08:19:52;;;;;;;4.6;2.3;;;;;;;19.83;65.61621;940.9335;;;;
2023/06/27 08:22:20;;;;;;;6.9;2.9;;;;;;;20;67.68262;940.9008;;;;
2023/06/27 08:24:45;;;;;;;5.7;2.7;;;;;;;20.18;64.10449;940.9194;;;;
2023/06/27 08:27:10;;;;;;;6.1;2.7;;;;;;;20.31;63.9834;940.9063;;;;
2023/06/27 08:29:35;;;;;;;3.9;2.4;;;;;;;20.61;63.47754;940.7555;;;;
2023/06/27 08:32:01;;;;;;;6.1;2.6;;;;;;;20.8;61.36523;940.9037;;;;
2023/06/27 08:34:26;;;;;;;5.8;2.7;;;;;;;20.87;62.79004;940.8067;;;;
2023/06/27 08:36:51;;;;;;;6;2.6;;;;;;;20.93;62.82129;940.7697;;;;
2023/06/27 08:39:17;;;;;;;4.7;2.1;;;;;;;20.74;62.65332;940.8091;;;;
2023/06/27 08:41:43;;;;;;;5.7;2.5;;;;;;;20.78;64.17871;940.7715;;;;
2023/06/27 08:44:08;;;;;;;4.9;2.3;;;;;;;20.74;61.98926;940.7816;;;;
2023/06/27 08:46:33;;;;;;;4.4;2.4;;;;;;;20.89;62.69922;940.7642;;;;
2023/06/27 08:49:00;;;;;;;4.8;2.6;;;;;;;20.96;63.02344;940.7623;;;;
2023/06/27 08:51:25;;;;;;;6.1;2.9;;;;;;;20.9;61.9873;940.7106;;;;
2023/06/27 08:53:52;;;;;;;6.1;2.4;;;;;;;20.82;65.21484;940.7263;;;;
2023/06/27 08:56:17;;;;;;;4.1;2.5;;;;;;;20.86;64.69434;940.7503;;;;
2023/06/27 08:58:42;;;;;;;5.6;2.5;;;;;;;20.76;62.64551;940.8109;;;;
2023/06/27 09:01:07;;;;;;;6.9;2.6;;;;;;;20.52;63.3125;940.791;;;;
2023/06/27 09:03:32;;;;;;;5.2;2.3;;;;;;;20.62;63.67676;940.8345;;;;
2023/06/27 09:05:59;;;;;;;5.7;2.9;;;;;;;20.58;65.57617;940.7764;;;;
2023/06/27 09:08:24;;;;;;;3;2.6;;;;;;;20.62;67.31055;940.8467;;;;
2023/06/27 09:10:52;;;;;;;7;3.2;;;;;;;20.46;66.7959;940.8231;;;;
2023/06/27 09:13:17;;;;;;;3.6;2.1;;;;;;;20.2;64.45605;940.801;;;;
2023/06/27 09:15:45;;;;;;;6;2.8;;;;;;;20.15;63.93652;940.7569;;;;
2023/06/27 09:18:10;;;;;;;4.5;2;;;;;;;19.94;62.43457;940.7573;;;;
2023/06/27 09:20:35;;;;;;;4.1;2.1;;;;;;;20.04;63.06836;940.7294;;;;
2023/06/27 09:23:02;;;;;;;4.4;2.4;;;;;;;20.25;63.97363;940.7119;;;;
2023/06/27 09:25:26;;;;;;;4.8;2.4;;;;;;;20.26;61.34863;940.6333;;;;
2023/06/27 09:28:21;;;;;;;6;2.3;;;;;;;19.95;61.30566;940.6965;;;;
2023/06/27 09:30:46;;;;;;;4.9;2.1;;;;;;;20.01;60.46191;940.6135;;;;
2023/06/27 09:33:12;;;;;;;3.5;2.2;;;;;;;20.05;63.66504;940.6815;;;;
2023/06/27 09:35:37;;;;;;;4.7;2.1;;;;;;;20.16;62.79395;940.7258;;;;
2023/06/27 09:38:02;;;;;;;4.7;2.4;;;;;;;20.13;61.44727;940.7961;;;;
2023/06/27 09:40:28;;;;;;;3.4;1.9;;;;;;;20.08;62.92383;940.7729;;;;
2023/06/27 09:42:53;;;;;;;5;2.2;;;;;;;20.23;60.81836;940.7958;;;;
2023/06/27 09:45:18;;;;;;;4.9;2.3;;;;;;;20.41;60.83105;940.7456;;;;
2023/06/27 09:47:45;;;;;;;3.5;2.1;;;;;;;20.13;62.81348;940.7711;;;;
2023/06/27 09:50:10;;;;;;;3.8;2.2;;;;;;;20.13;64.36523;940.7216;;;;
2023/06/27 09:52:37;;;;;;;8.6;2.4;;;;;;;20.72;61.80957;940.6624;;;;
2023/06/27 09:55:02;;;;;;;5.3;2.2;;;;;;;21.09;59.79102;940.7252;;;;
2023/06/27 09:57:27;;;;;;;4.6;2.5;;;;;;;20.73;59.80078;940.7859;;;;
2023/06/27 09:59:53;;;;;;;4.2;2.1;;;;;;;20.7;62.2627;940.7784;;;;
2023/06/27 10:02:18;;;;;;;4.6;2.4;;;;;;;20.79;60.44043;940.7025;;;;
2023/06/27 10:04:45;;;;;;;5.1;2.5;;;;;;;20.96;62.12402;940.725;;;;
2023/06/27 10:07:13;;;;;;;6;2.4;;;;;;;20.92;60.35352;940.6783;;;;
2023/06/27 10:09:37;;;;;;;6;2.6;;;;;;;20.62;59.4707;940.675;;;;
2023/06/27 10:12:02;;;;;;;4;2.3;;;;;;;20.72;60.38379;940.7173;;;;
2023/06/27 10:14:28;;;;;;;5.5;2.3;;;;;;;20.84;60.96094;940.6879;;;;
2023/06/27 10:16:54;;;;;;;4.7;2.3;;;;;;;21.02;60.15527;940.6984;;;;
2023/06/27 10:19:20;;;;;;;4.3;2.3;;;;;;;20.8;59.69336;940.6085;;;;
2023/06/27 10:21:45;;;;;;;2.6;2.1;;;;;;;20.86;59.94629;940.5514;;;;
2023/06/27 10:24:12;;;;;;;3.7;2.3;;;;;;;21.2;59.02246;940.5538;;;;
2023/06/27 10:26:37;;;;;;;4.3;2.2;;;;;;;21.66;56.0625;940.522;;;;
2023/06/27 10:29:03;;;;;;;3.9;2.2;;;;;;;21.77;57.37598;940.5125;;;;
2023/06/27 10:31:27;;;;;;;3.8;2.2;;;;;;;22.06;57.01563;940.527;;;;
2023/06/27 10:33:53;;;;;;;7.7;2.6;;;;;;;22.59;55.97949;940.5193;;;;
2023/06/27 10:36:18;;;;;;;3.5;2.2;;;;;;;23.16;54.10059;940.5125;;;;
2023/06/27 10:38:43;;;;;;;5;2.6;;;;;;;23.22;54.66113;940.5036;;;;
2023/06/27 10:41:09;;;;;;;4.3;2.2;;;;;;;23.81;53.58105;940.4576;;;;
2023/06/27 10:43:36;;;;;;;4.4;2;;;;;;;24.01;49.22363;940.491;;;;
2023/06/27 10:46:01;;;;;;;4.4;2.3;;;;;;;23.73;52.20605;940.4656;;;;
2023/06/27 10:48:26;;;;;;;3.2;1.9;;;;;;;23.35;53.75977;940.4448;;;;
2023/06/27 10:50:51;;;;;;;5.1;2.3;;;;;;;23.73;51.94629;940.4423;;;;
2023/06/27 10:53:16;;;;;;;4.5;2.5;;;;;;;24.05;50.15918;940.3922;;;;
2023/06/27 10:55:42;;;;;;;3.7;2.1;;;;;;;24.15;49.81738;940.3094;;;;
2023/06/27 10:58:10;;;;;;;4.1;2;;;;;;;23.91;50.58984;940.3005;;;;
2023/06/27 11:00:32;;;;;;;6;2.6;;;;;;;24.03;51.09863;940.2717;;;;
2023/06/27 11:02:58;;;;;;;4.5;2.4;;;;;;;24.34;51.64063;940.207;;;;
2023/06/27 11:05:23;;;;;;;5.3;2.1;;;;;;;24.92;50.66992;940.2058;;;;
2023/06/27 11:07:50;;;;;;;3.2;2.2;;;;;;;24.71;49.36133;940.1904;;;;
2023/06/27 11:10:15;;;;;;;4.3;2.1;;;;;;;24.37;50.30078;940.1674;;;;
2023/06/27 11:12:41;;;;;;;3.5;2.4;;;;;;;24.34;48.49512;940.1703;;;;
2023/06/27 11:15:07;;;;;;;5.8;2.4;;;;;;;24.55;50.05078;940.1667;;;;
2023/06/27 11:17:37;;;;;;;3.1;2.2;;;;;;;24.44;50.66211;940.0869;;;;
2023/06/27 11:19:58;;;;;;;5.9;2.3;;;;;;;23.84;52.46582;940.1144;;;;
2023/06/27 11:22:24;;;;;;;5.6;2.7;;;;;;;23.5;52.58984;940.0737;;;;
2023/06/27 11:24:49;;;;;;;3.1;2.2;;;;;;;23.47;55.10352;940.0489;;;;
2023/06/27 11:27:14;;;;;;;3.8;2;;;;;;;23.61;53.59082;939.9366;;;;
2023/06/27 11:29:39;;;;;;;3.5;2.3;;;;;;;24.11;51.83691;939.8992;;;;
2023/06/27 11:32:06;;;;;;;4.1;2.3;;;;;;;23.5;55.40039;939.9096;;;;
2023/06/27 11:34:31;;;;;;;3.5;2.3;;;;;;;23.08;55.54785;939.9019;;;;
2023/06/27 11:36:56;;;;;;;4.4;2.4;;;;;;;23.36;55.52441;939.9592;;;;
2023/06/27 11:39:21;;;;;;;7.3;2.4;;;;;;;23.58;52.17676;939.9156;;;;
2023/06/27 11:41:46;;;;;;;4.3;2.4;;;;;;;23.24;54.93457;939.9434;;;;
2023/06/27 11:44:11;;;;;;;5.3;2.6;;;;;;;23.17;56.52344;939.913;;;;
2023/06/27 11:46:37;;;;;;;6.4;3;;;;;;;23.62;52.52246;939.8783;;;;
2023/06/27 11:49:02;;;;;;;3.8;2.2;;;;;;;23.92;53.64063;939.8331;;;;
2023/06/27 11:51:29;;;;;;;4.2;2.3;;;;;;;24.05;53.20801;939.7861;;;;
2023/06/27 11:53:55;;;;;;;5;2.1;;;;;;;24.29;52.63574;939.7917;;;;
2023/06/27 11:56:21;;;;;;;6.1;2.5;;;;;;;24.11;54.72363;939.7321;;;;
2023/06/27 11:58:46;;;;;;;5.7;2.7;;;;;;;24.21;53.05176;939.7037;;;;
2023/06/27 12:01:11;;;;;;;5;2.5;;;;;;;24;55.8877;939.6835;;;;
2023/06/27 12:03:36;;;;;;;3.7;2.1;;;;;;;24.18;54.79004;939.5545;;;;
2023/06/27 12:06:01;;;;;;;5.9;2.5;;;;;;;23.47;55.93848;939.6221;;;;
2023/06/27 12:08:26;;;;;;;5.1;2.5;;;;;;;23.73;56.91113;939.5956;;;;
2023/06/27 12:10:51;;;;;;;4.3;2.3;;;;;;;24.29;50.32715;939.5756;;;;
2023/06/27 12:13:17;;;;;;;3.8;2.3;;;;;;;24.63;52.88867;939.527;;;;
2023/06/27 12:15:43;;;;;;;6;2.5;;;;;;;24.58;50.90137;939.4702;;;;
2023/06/27 12:18:08;;;;;;;5.2;2.6;;;;;;;24.66;51.52539;939.537;;;;
2023/06/27 12:20:32;;;;;;;5.1;2.5;;;;;;;24.81;51.2832;939.5256;;;;
2023/06/27 12:22:57;;;;;;;4;2.5;;;;;;;24.6;51.88184;939.5745;;;;
2023/06/27 12:25:22;;;;;;;3.7;2.5;;;;;;;24.6;51.69336;939.4995;;;;
2023/06/27 12:27:48;;;;;;;4.2;2.6;;;;;;;24.63;50.31836;939.5302;;;;
2023/06/27 12:30:13;;;;;;;5.4;2.3;;;;;;;24.78;50.32422;939.5302;;;;
2023/06/27 12:32:39;;;;;;;3.5;2.1;;;;;;;24.68;50.14746;939.5198;;;;
2023/06/27 12:35:05;;;;;;;4.2;2.3;;;;;;;24.91;50.66797;939.4639;;;;
2023/06/27 12:37:33;;;;;;;4.8;2.8;;;;;;;24.86;50.55566;939.4514;;;;
2023/06/27 12:39:56;;;;;;;3.5;2.5;;;;;;;24.63;50.99023;939.5148;;;;
2023/06/27 12:42:24;;;;;;;6.3;2.5;;;;;;;24.84;49.3623;939.5149;;;;
2023/06/27 12:44:54;;;;;;;4.6;2.4;;;;;;;24.84;49.92969;939.4495;;;;
2023/06/27 12:47:14;;;;;;;4.4;2.4;;;;;;;24.88;48.44629;939.488;;;;
2023/06/27 12:49:39;;;;;;;3.7;2.8;;;;;;;24.68;48.23633;939.468;;;;
2023/06/27 12:52:05;;;;;;;5.4;2.5;;;;;;;24.59;48.99414;939.4949;;;;
2023/06/27 12:54:31;;;;;;;4.5;2.4;;;;;;;24.45;51.24121;939.4121;;;;
2023/06/27 12:56:56;;;;;;;6.2;2.7;;;;;;;23.69;53.53027;939.4614;;;;
2023/06/27 12:59:26;;;;;;;5.2;3;;;;;;;23.51;54.20215;939.4426;;;;
2023/06/27 13:01:55;;;;;;;5.8;2.5;;;;;;;23.85;50.9248;939.3812;;;;
2023/06/27 13:04:12;;;;;;;3.5;2.2;;;;;;;24.12;52.06348;939.2363;;;;
2023/06/27 13:06:38;;;;;;;4.6;2.6;;;;;;;24.15;54.88086;939.3442;;;;
2023/06/27 13:09:03;;;;;;;5.2;2.9;;;;;;;24.42;50.35254;939.3326;;;;
2023/06/27 13:11:28;;;;;;;3.6;2.5;;;;;;;24.33;52.13574;939.307;;;;
2023/06/27 13:13:54;;;;;;;6;2.3;;;;;;;24.47;51.64355;939.2908;;;;
2023/06/27 13:16:21;;;;;;;4;2.6;;;;;;;24.62;48.98535;939.2869;;;;
2023/06/27 13:18:46;;;;;;;5.9;2.6;;;;;;;24.57;48.79102;939.2974;;;;
2023/06/27 13:21:13;;;;;;;4.2;2.3;;;;;;;24.59;50.34961;939.2769;;;;
2023/06/27 13:23:38;;;;;;;5.1;2.5;;;;;;;24.08;52.64648;939.1828;;;;
2023/06/27 13:26:03;;;;;;;7.1;2.8;;;;;;;23.57;52.82227;939.1682;;;;
2023/06/27 13:28:28;;;;;;;8.1;2.8;;;;;;;23.17;56.3584;939.2022;;;;
2023/06/27 13:30:54;;;;;;;6.1;3;;;;;;;23.57;53.44531;939.1583;;;;
2023/06/27 13:33:20;;;;;;;5.4;2.6;;;;;;;23.88;52.57617;939.1295;;;;
2023/06/27 13:35:45;;;;;;;3.9;2.4;;;;;;;24.13;54.27832;939.0608;;;;
2023/06/27 13:38:10;;;;;;;6.2;2.7;;;;;;;24.23;50.26074;939.0602;;;;
2023/06/27 13:40:37;;;;;;;4.8;2.7;;;;;;;23.66;53.83301;939.0128;;;;
2023/06/27 13:43:02;;;;;;;5.1;2.7;;;;;;;23.9;52.21387;939.015;;;;
2023/06/27 13:45:28;;;;;;;3.6;2.4;;;;;;;24.02;50.56738;939.0288;;;;
2023/06/27 13:47:54;;;;;;;5.3;2.6;;;;;;;23.64;53.37109;938.9625;;;;
2023/06/27 13:50:20;;;;;;;4;2.7;;;;;;;23.77;54.25879;938.9433;;;;
2023/06/27 13:52:45;;;;;;;6.8;2.6;;;;;;;24.11;53.50977;938.9114;;;;
2023/06/27 13:55:13;;;;;;;6.1;2.5;;;;;;;24.53;50.10742;938.9022;;;;
2023/06/27 13:57:38;;;;;;;6.7;2.8;;;;;;;24.41;51.13086;938.9374;;;;
2023/06/27 14:00:05;;;;;;;7;2.8;;;;;;;24.31;50.49414;938.7978;;;;
2023/06/27 14:02:28;;;;;;;3.6;2.5;;;;;;;23.93;49.99316;938.8558;;;;
2023/06/27 14:04:55;;;;;;;4.5;2.7;;;;;;;23.41;51.49805;938.8195;;;;
2023/06/27 14:07:18;;;;;;;3.8;2.8;;;;;;;23.52;52.34668;938.925;;;;
2023/06/27 14:09:47;;;;;;;6.5;2.7;;;;;;;23.9;50.73047;938.7766;;;;
2023/06/27 14:12:13;;;;;;;6.5;2.8;;;;;;;24.07;51.92871;938.798;;;;
2023/06/27 14:14:37;;;;;;;5;2.5;;;;;;;24.23;51.2041;938.7592;;;;
2023/06/27 14:17:02;;;;;;;4.8;2.9;;;;;;;24.27;52.20996;938.7006;;;;
2023/06/27 14:19:27;;;;;;;6.1;3.1;;;;;;;23.89;53.54199;938.6583;;;;
2023/06/27 14:21:53;;;;;;;5.5;2.7;;;;;;;23.48;54.16309;938.6822;;;;
2023/06/27 14:24:18;;;;;;;7.4;2.9;;;;;;;23.6;53.74316;938.6493;;;;
2023/06/27 14:26:45;;;;;;;3.7;2.6;;;;;;;23.82;50.19238;938.5297;;;;
2023/06/27 14:29:10;;;;;;;4.7;2.8;;;;;;;23.35;52.88965;938.6131;;;;
2023/06/27 14:31:35;;;;;;;4.1;2.6;;;;;;;23.15;54.26465;938.6619;;;;
2023/06/27 14:34:00;;;;;;;6.1;3;;;;;;;23.55;51.86621;938.6736;;;;